createdAt,value
2022-09-07T00:01:26.255Z,96.90
2022-09-07T00:03:56.515Z,96.90
2022-09-07T00:06:26.170Z,97.10
2022-09-07T00:08:54.933Z,97.20
2022-09-07T00:11:23.920Z,97.20
2022-09-07T00:13:53.974Z,97.30
2022-09-07T00:16:25.578Z,97.50
2022-09-07T00:18:56.261Z,97.60
2022-09-07T00:21:25.430Z,97.80
2022-09-07T00:23:54.650Z,98.20
2022-09-07T00:26:25.063Z,98.10
2022-09-07T00:28:58.702Z,98.30
2022-09-07T00:31:28.247Z,98.30
2022-09-07T00:33:59.880Z,98.30
2022-09-07T00:36:29.132Z,98.40
2022-09-07T00:38:58.454Z,98.60
2022-09-07T00:41:27.369Z,98.70
2022-09-07T00:43:59.208Z,98.70
2022-09-07T00:46:30.034Z,98.80
2022-09-07T00:49:02.570Z,98.90
2022-09-07T00:51:37.321Z,99.00
2022-09-07T00:54:10.978Z,99.10
2022-09-07T00:56:44.410Z,99.20
2022-09-07T00:59:18.576Z,99.40
2022-09-07T01:01:47.949Z,99.50
2022-09-07T01:04:17.676Z,99.60
2022-09-07T01:06:46.498Z,99.60
2022-09-07T01:09:18.311Z,99.70
2022-09-07T01:11:50.944Z,99.70
2022-09-07T01:14:24.022Z,99.90
2022-09-07T01:17:01.102Z,99.90
2022-09-07T01:20:04.393Z,99.90
2022-09-07T01:23:05.197Z,99.90
2022-09-07T01:25:43.907Z,99.90
2022-09-07T01:28:20.648Z,99.90
2022-09-07T01:30:56.952Z,99.90
2022-09-07T01:33:41.846Z,99.90
2022-09-07T01:36:20.027Z,99.90
2022-09-07T01:38:53.805Z,99.90
2022-09-07T01:41:28.107Z,99.90
2022-09-07T01:44:05.025Z,99.90
2022-09-07T01:46:39.374Z,99.90
2022-09-07T01:49:13.569Z,99.90
2022-09-07T01:51:47.706Z,99.90
2022-09-07T01:54:22.345Z,99.90
2022-09-07T01:56:56.932Z,99.90
2022-09-07T01:59:31.399Z,99.90
2022-09-07T02:02:05.799Z,99.90
2022-09-07T02:04:39.353Z,99.90
2022-09-07T02:07:15.440Z,99.90
2022-09-07T02:09:51.647Z,99.90
2022-09-07T02:12:24.348Z,99.90
2022-09-07T02:15:00.708Z,99.90
2022-09-07T02:17:34.054Z,99.90
2022-09-07T02:20:10.555Z,99.90
2022-09-07T02:22:43.813Z,99.90
2022-09-07T02:25:17.549Z,99.90
2022-09-07T02:27:48.633Z,99.90
2022-09-07T02:30:19.024Z,99.90
2022-09-07T02:32:47.890Z,99.90
2022-09-07T02:35:16.861Z,99.90
2022-09-07T02:37:46.609Z,99.90
2022-09-07T02:40:15.888Z,99.90
2022-09-07T02:42:47.057Z,99.90
2022-09-07T02:45:17.249Z,99.90
2022-09-07T02:48:01.090Z,99.90
2022-09-07T02:51:08.363Z,99.90
2022-09-07T02:54:08.604Z,99.90
2022-09-07T02:56:52.816Z,99.90
2022-09-07T02:59:38.684Z,99.90
2022-09-07T03:02:15.297Z,99.90
2022-09-07T03:04:51.731Z,99.90
2022-09-07T03:07:24.204Z,99.90
2022-09-07T03:09:55.440Z,99.90
2022-09-07T03:12:24.233Z,99.90
2022-09-07T03:14:52.998Z,99.90
2022-09-07T03:17:21.771Z,99.90
2022-09-07T03:19:51.876Z,99.90
2022-09-07T03:22:20.611Z,99.90
2022-09-07T03:24:49.332Z,99.90
2022-09-07T03:27:18.100Z,99.90
2022-09-07T03:29:46.838Z,99.90
2022-09-07T03:32:15.547Z,99.90
2022-09-07T03:34:44.317Z,99.90
2022-09-07T03:37:14.469Z,99.90
2022-09-07T03:39:43.284Z,99.90
2022-09-07T03:42:12.037Z,99.90
2022-09-07T03:44:40.730Z,99.90
2022-09-07T03:47:09.560Z,99.90
2022-09-07T03:49:38.270Z,99.90
2022-09-07T03:52:07.064Z,99.90
2022-09-07T03:54:39.635Z,99.90
2022-09-07T03:57:08.611Z,99.90
2022-09-07T03:59:37.529Z,99.90
2022-09-07T04:02:06.446Z,99.90
2022-09-07T04:04:35.358Z,99.90
2022-09-07T04:07:04.132Z,99.90
2022-09-07T04:09:33.015Z,99.90
2022-09-07T04:12:03.352Z,99.90
2022-09-07T04:14:32.147Z,99.90
2022-09-07T04:17:01.144Z,99.90
2022-09-07T04:19:31.015Z,99.90
2022-09-07T04:21:59.791Z,99.90
2022-09-07T04:24:28.694Z,99.90
2022-09-07T04:26:57.583Z,99.90
2022-09-07T04:29:27.810Z,99.90
2022-09-07T04:31:56.559Z,99.90
2022-09-07T04:34:25.340Z,99.90
2022-09-07T04:36:54.114Z,99.90
2022-09-07T04:39:23.023Z,99.90
2022-09-07T04:41:51.792Z,99.90
2022-09-07T04:44:20.540Z,99.90
2022-09-07T04:46:50.641Z,99.90
2022-09-07T04:49:20.834Z,99.90
2022-09-07T04:51:49.581Z,99.90
2022-09-07T04:54:18.344Z,99.90
2022-09-07T04:56:47.118Z,99.90
2022-09-07T04:59:15.854Z,99.90
2022-09-07T05:01:44.640Z,99.90
2022-09-07T05:04:14.807Z,99.90
2022-09-07T05:06:43.627Z,99.90
2022-09-07T05:09:12.458Z,99.90
2022-09-07T05:11:41.225Z,99.90
2022-09-07T05:14:11.907Z,99.90
2022-09-07T05:16:40.682Z,99.90
2022-09-07T05:19:12.426Z,99.90
2022-09-07T05:21:42.523Z,99.90
2022-09-07T05:24:11.398Z,99.90
2022-09-07T05:26:40.248Z,99.90
2022-09-07T05:31:58.609Z,99.90
2022-09-07T05:36:58.731Z,99.90
2022-09-07T05:39:28.327Z,99.90
2022-09-07T05:41:57.335Z,99.90
2022-09-07T05:47:15.187Z,99.90
2022-09-07T05:49:44.152Z,99.90
2022-09-07T05:52:14.437Z,99.90
2022-09-07T05:54:43.244Z,99.90
2022-09-07T05:57:13.053Z,99.90
2022-09-07T05:59:41.875Z,99.90
2022-09-07T06:02:14.198Z,99.90
2022-09-07T06:04:43.177Z,99.90
2022-09-07T06:07:22.656Z,99.90
2022-09-07T06:12:42.535Z,99.90
2022-09-07T06:15:13.703Z,99.90
2022-09-07T06:17:42.463Z,99.90
2022-09-07T06:20:11.907Z,99.90
2022-09-07T06:22:42.048Z,99.90
2022-09-07T06:25:10.987Z,99.90
2022-09-07T06:27:39.758Z,99.90
2022-09-07T06:30:09.574Z,99.90
2022-09-07T06:35:09.821Z,99.90
2022-09-07T06:37:38.826Z,99.90
2022-09-07T06:40:34.486Z,99.90
2022-09-07T06:43:03.483Z,99.90
2022-09-07T06:45:32.302Z,99.90
2022-09-07T06:48:01.042Z,99.90
2022-09-07T06:50:29.838Z,99.90
2022-09-07T06:55:48.884Z,99.90
2022-09-07T06:58:17.796Z,99.90
2022-09-07T07:00:46.608Z,99.90
2022-09-07T07:03:15.497Z,99.90
2022-09-07T07:05:51.131Z,99.90
2022-09-07T07:08:19.877Z,99.90
2022-09-07T07:10:50.425Z,99.90
2022-09-07T07:15:48.181Z,99.90
2022-09-07T07:18:21.227Z,99.90
2022-09-07T07:20:50.270Z,99.90
2022-09-07T07:23:19.016Z,99.90
2022-09-07T07:25:49.126Z,99.90
2022-09-07T07:31:10.612Z,99.90
2022-09-07T07:33:42.213Z,99.90
2022-09-07T07:36:15.398Z,99.90
2022-09-07T07:39:02.078Z,99.90
2022-09-07T07:44:22.440Z,99.90
2022-09-07T07:46:51.906Z,99.90
2022-09-07T07:49:20.948Z,99.90
2022-09-07T07:54:38.588Z,99.90
2022-09-07T07:57:08.677Z,99.90
2022-09-07T07:59:37.645Z,99.90
2022-09-07T08:02:07.052Z,99.90
2022-09-07T08:04:36.880Z,99.90
2022-09-07T08:07:10.185Z,99.90
2022-09-07T08:09:41.375Z,99.90
2022-09-07T08:12:13.509Z,99.90
2022-09-07T08:14:42.489Z,99.90
2022-09-07T08:17:12.988Z,99.90
2022-09-07T08:19:42.083Z,99.90
2022-09-07T08:22:12.555Z,99.90
2022-09-07T08:24:41.521Z,99.90
2022-09-07T08:27:11.558Z,99.90
2022-09-07T08:29:40.177Z,99.90
2022-09-07T08:32:08.820Z,99.90
2022-09-07T08:34:38.293Z,99.90
2022-09-07T08:37:07.752Z,99.90
2022-09-07T08:39:36.939Z,99.90
2022-09-07T08:42:38.489Z,99.90
2022-09-07T08:45:11.352Z,99.90
2022-09-07T08:47:44.595Z,99.90
2022-09-07T08:50:19.558Z,99.90
2022-09-07T08:52:51.956Z,99.30
2022-09-07T08:55:27.682Z,98.10
2022-09-07T08:58:05.715Z,98.30
2022-09-07T09:00:36.098Z,97.00
2022-09-07T09:06:05.617Z,96.50
2022-09-07T09:08:47.862Z,96.20
2022-09-07T09:11:21.248Z,96.50
2022-09-07T09:14:02.480Z,95.80
2022-09-07T09:16:36.775Z,95.60
2022-09-07T09:19:30.077Z,95.70
2022-09-07T09:22:09.871Z,95.30
2022-09-07T09:24:42.126Z,95.00
2022-09-07T09:27:11.079Z,94.50
2022-09-07T09:29:41.073Z,94.20
2022-09-07T09:32:35.869Z,94.80
2022-09-07T09:35:13.461Z,93.50
2022-09-07T09:37:43.421Z,93.10
2022-09-07T09:40:24.819Z,92.30
2022-09-07T09:43:07.853Z,92.70
2022-09-07T09:48:39.249Z,92.80
2022-09-07T09:54:00.256Z,93.10
2022-09-07T09:56:40.506Z,93.10
2022-09-07T10:05:31.924Z,92.40
2022-09-07T10:08:00.624Z,92.50
2022-09-07T10:10:31.440Z,92.70
2022-09-07T10:13:00.847Z,93.00
2022-09-07T10:15:39.964Z,93.10
2022-09-07T10:18:21.669Z,92.80
2022-09-07T10:20:50.380Z,92.50
2022-09-07T10:23:24.322Z,92.40
2022-09-07T10:25:52.998Z,92.50
2022-09-07T10:28:23.943Z,92.80
2022-09-07T10:31:15.437Z,92.80
2022-09-07T10:36:45.890Z,93.20
2022-09-07T10:39:18.750Z,92.90
2022-09-07T10:41:54.142Z,93.00
2022-09-07T10:44:37.725Z,92.90
2022-09-07T10:47:16.801Z,92.40
2022-09-07T10:52:47.740Z,91.50
2022-09-07T10:55:26.921Z,90.60
2022-09-07T10:58:05.763Z,90.70
2022-09-07T11:00:43.353Z,90.30
2022-09-07T11:03:26.488Z,88.80
2022-09-07T11:06:17.371Z,88.50
2022-09-07T11:09:19.911Z,87.60
2022-09-07T11:12:03.292Z,87.50
2022-09-07T11:14:38.682Z,86.30
2022-09-07T11:17:15.242Z,87.30
2022-09-07T11:19:51.254Z,84.70
2022-09-07T11:22:28.838Z,83.80
2022-09-07T11:27:57.845Z,82.10
2022-09-07T11:30:31.256Z,82.20
2022-09-07T11:33:04.624Z,81.20
2022-09-07T11:35:40.242Z,78.50
2022-09-07T11:38:26.600Z,77.20
2022-09-07T11:41:03.165Z,78.00
2022-09-07T11:43:36.130Z,77.20
2022-09-07T11:46:11.123Z,76.30
2022-09-07T11:48:45.281Z,77.30
2022-09-07T11:51:27.315Z,77.00
2022-09-07T11:54:02.245Z,74.80
2022-09-07T11:56:36.696Z,75.50
2022-09-07T11:59:20.253Z,76.70
2022-09-07T12:02:01.756Z,74.10
2022-09-07T12:04:48.348Z,73.30
2022-09-07T12:07:34.692Z,73.10
2022-09-07T12:10:28.242Z,73.20
2022-09-07T12:13:13.337Z,72.40
2022-09-07T12:15:51.119Z,72.50
2022-09-07T12:18:33.025Z,73.40
2022-09-07T12:21:01.703Z,72.80
2022-09-07T12:23:31.976Z,72.30
2022-09-07T12:26:50.329Z,71.90
2022-09-07T12:29:25.613Z,72.00
2022-09-07T12:32:00.021Z,71.80
2022-09-07T12:34:50.392Z,70.70
2022-09-07T12:37:42.608Z,70.30
2022-09-07T12:40:46.914Z,69.50
2022-09-07T12:43:53.356Z,69.70
2022-09-07T12:46:46.962Z,70.10
2022-09-07T12:49:44.725Z,72.00
2022-09-07T12:52:46.496Z,70.60
2022-09-07T12:55:31.159Z,71.80
2022-09-07T12:58:14.869Z,70.80
2022-09-07T13:01:05.266Z,71.60
2022-09-07T13:03:51.383Z,72.30
2022-09-07T13:09:33.166Z,73.50
2022-09-07T13:12:04.770Z,73.40
2022-09-07T13:14:37.917Z,73.30
2022-09-07T13:17:41.617Z,72.50
2022-09-07T13:20:30.182Z,72.10
2022-09-07T13:23:20.761Z,75.00
2022-09-07T13:27:01.973Z,71.90
2022-09-07T13:29:37.970Z,71.70
2022-09-07T13:32:11.171Z,71.30
2022-09-07T13:34:51.013Z,71.80
2022-09-07T13:37:23.117Z,71.50
2022-09-07T13:39:54.819Z,69.50
2022-09-07T13:42:26.297Z,70.10
2022-09-07T13:44:57.441Z,71.00
2022-09-07T13:47:39.107Z,68.50
2022-09-07T13:50:21.869Z,69.60
2022-09-07T13:53:14.817Z,68.20
2022-09-07T13:55:51.774Z,68.40
2022-09-07T13:58:23.714Z,68.80
2022-09-07T14:00:57.357Z,66.80
2022-09-07T14:03:29.126Z,66.70
2022-09-07T14:06:30.003Z,68.10
2022-09-07T14:09:00.877Z,67.90
2022-09-07T14:11:38.845Z,69.80
2022-09-07T14:14:14.341Z,67.40
2022-09-07T14:16:45.593Z,67.60
2022-09-07T14:19:20.059Z,64.70
2022-09-07T14:21:58.252Z,66.20
2022-09-07T14:24:33.037Z,66.90
2022-09-07T14:27:02.317Z,67.50
2022-09-07T14:29:32.636Z,66.20
2022-09-07T14:32:03.696Z,66.50
2022-09-07T14:34:36.118Z,64.70
2022-09-07T14:37:08.642Z,65.00
2022-09-07T14:39:41.033Z,64.80
2022-09-07T14:42:12.959Z,66.10
2022-09-07T14:44:43.549Z,64.60
2022-09-07T14:47:25.718Z,64.10
2022-09-07T14:49:56.122Z,65.10
2022-09-07T14:52:34.965Z,64.30
2022-09-07T14:55:22.932Z,63.40
2022-09-07T14:58:09.644Z,63.50
2022-09-07T15:00:38.805Z,63.50
2022-09-07T15:03:30.351Z,62.80
2022-09-07T15:06:01.143Z,63.10
2022-09-07T15:08:40.502Z,63.40
2022-09-07T15:14:03.681Z,64.50
2022-09-07T15:16:34.926Z,64.90
2022-09-07T15:19:05.729Z,65.10
2022-09-07T15:21:36.615Z,66.70
2022-09-07T15:24:07.389Z,65.50
2022-09-07T15:29:29.560Z,64.40
2022-09-07T15:32:03.740Z,64.20
2022-09-07T15:34:34.714Z,64.00
2022-09-07T15:38:00.267Z,63.20
2022-09-07T15:39:54.136Z,63.10
2022-09-07T15:45:12.399Z,63.00
2022-09-07T15:47:43.556Z,63.50
2022-09-07T15:50:16.026Z,63.00
2022-09-07T15:52:46.367Z,62.90
2022-09-07T15:55:17.841Z,63.30
2022-09-07T15:57:54.539Z,64.90
2022-09-07T16:00:28.335Z,64.20
2022-09-07T16:03:06.125Z,65.50
2022-09-07T16:05:35.629Z,65.50
2022-09-07T16:10:55.724Z,65.00
2022-09-07T16:13:25.054Z,65.30
2022-09-07T16:15:54.060Z,64.80
2022-09-07T16:18:22.746Z,65.60
2022-09-07T16:20:52.925Z,66.20
2022-09-07T16:23:21.929Z,65.00
2022-09-07T16:25:59.685Z,66.20
2022-09-07T16:28:29.201Z,66.20
2022-09-07T16:30:58.275Z,66.20
2022-09-07T16:33:35.941Z,66.90
2022-09-07T16:36:07.364Z,67.40
2022-09-07T16:38:44.068Z,67.10
2022-09-07T16:41:17.188Z,67.80
2022-09-07T16:43:46.329Z,67.90
2022-09-07T16:46:16.977Z,68.20
2022-09-07T16:48:45.741Z,68.60
2022-09-07T16:51:16.336Z,69.20
2022-09-07T16:53:44.979Z,68.70
2022-09-07T16:56:16.943Z,68.90
2022-09-07T16:58:47.476Z,69.30
2022-09-07T17:01:17.689Z,69.60
2022-09-07T17:03:46.735Z,69.80
2022-09-07T17:06:15.730Z,70.30
2022-09-07T17:08:44.503Z,70.30
2022-09-07T17:11:14.854Z,70.70
2022-09-07T17:13:45.515Z,71.00
2022-09-07T17:16:16.337Z,71.10
2022-09-07T17:21:35.777Z,72.30
2022-09-07T17:24:06.773Z,73.40
2022-09-07T17:26:35.785Z,74.30
2022-09-07T17:29:07.177Z,74.20
2022-09-07T17:34:26.778Z,75.40
2022-09-07T17:36:56.551Z,76.00
2022-09-07T17:39:25.174Z,76.40
2022-09-07T17:41:54.555Z,77.00
2022-09-07T17:44:24.630Z,78.00
2022-09-07T17:46:53.317Z,78.80
2022-09-07T17:49:21.912Z,79.50
2022-09-07T17:51:50.520Z,80.00
2022-09-07T17:54:19.226Z,79.70
2022-09-07T17:56:47.993Z,79.70
2022-09-07T18:02:06.785Z,80.40
2022-09-07T18:04:36.145Z,80.80
2022-09-07T18:07:04.850Z,81.10
2022-09-07T18:09:33.461Z,81.30
2022-09-07T18:12:02.059Z,81.80
2022-09-07T18:14:31.228Z,82.20
2022-09-07T18:17:00.299Z,81.90
2022-09-07T18:19:30.432Z,81.90
2022-09-07T18:21:59.410Z,82.10
2022-09-07T18:24:28.163Z,82.30
2022-09-07T18:26:56.893Z,82.80
2022-09-07T18:29:33.648Z,83.10
2022-09-07T18:32:07.372Z,83.60
2022-09-07T18:34:38.455Z,83.80
2022-09-07T18:37:07.265Z,84.00
2022-09-07T18:39:36.712Z,83.50
2022-09-07T18:42:05.761Z,83.30
2022-09-07T18:47:28.945Z,83.50
2022-09-07T18:50:00.013Z,84.20
2022-09-07T18:55:18.471Z,84.90
2022-09-07T18:57:47.107Z,85.00
2022-09-07T19:00:16.150Z,84.70
2022-09-07T19:02:49.849Z,85.10
2022-09-07T19:08:09.193Z,85.00
2022-09-07T19:10:38.937Z,85.80
2022-09-07T19:13:07.562Z,86.10
2022-09-07T19:15:37.688Z,86.40
2022-09-07T19:18:07.951Z,86.50
2022-09-07T19:20:38.411Z,86.80
2022-09-07T19:23:07.113Z,87.00
2022-09-07T19:25:40.124Z,87.40
2022-09-07T19:28:08.959Z,87.40
2022-09-07T19:30:37.545Z,87.30
2022-09-07T19:33:09.870Z,87.20
2022-09-07T19:35:39.846Z,87.50
2022-09-07T19:38:08.509Z,87.50
2022-09-07T19:40:37.148Z,87.40
2022-09-07T19:43:06.190Z,87.40
2022-09-07T19:45:38.628Z,87.50
2022-09-07T19:48:07.176Z,87.80
2022-09-07T19:50:35.825Z,87.90
2022-09-07T19:53:05.873Z,88.10
2022-09-07T19:55:34.459Z,88.40
2022-09-07T19:58:03.128Z,88.60
2022-09-07T20:00:31.765Z,88.80
2022-09-07T20:03:00.446Z,89.00
2022-09-07T20:05:31.004Z,89.20
2022-09-07T20:07:59.666Z,89.10
2022-09-07T20:10:31.220Z,89.70
2022-09-07T20:13:00.209Z,90.10
2022-09-07T20:15:29.266Z,90.30
2022-09-07T20:17:57.874Z,90.20
2022-09-07T20:20:26.505Z,90.20
2022-09-07T20:22:55.110Z,90.40
2022-09-07T20:25:23.714Z,90.40
2022-09-07T20:27:53.728Z,90.50
2022-09-07T20:30:24.245Z,90.50
2022-09-07T20:32:53.826Z,90.60
2022-09-07T20:35:22.759Z,90.60
2022-09-07T20:37:51.409Z,90.60
2022-09-07T20:40:20.160Z,90.80
2022-09-07T20:42:48.873Z,90.90
2022-09-07T20:45:19.046Z,91.10
2022-09-07T20:47:47.660Z,91.50
2022-09-07T20:50:16.504Z,91.70
2022-09-07T20:52:45.085Z,91.70
2022-09-07T20:55:13.774Z,92.00
2022-09-07T20:57:42.440Z,92.30
2022-09-07T21:00:11.597Z,92.50
2022-09-07T21:02:41.581Z,92.70
2022-09-07T21:05:10.931Z,92.90
2022-09-07T21:07:40.125Z,92.80
2022-09-07T21:10:09.885Z,93.00
2022-09-07T21:12:38.566Z,93.30
2022-09-07T21:15:08.921Z,93.30
2022-09-07T21:17:38.680Z,93.30
2022-09-07T21:20:09.581Z,93.30
2022-09-07T21:22:38.634Z,93.40
2022-09-07T21:25:08.526Z,93.40
2022-09-07T21:27:38.706Z,93.30
2022-09-07T21:30:08.957Z,93.30
2022-09-07T21:32:37.772Z,93.30
2022-09-07T21:35:10.097Z,93.30
2022-09-07T21:37:38.961Z,93.40
2022-09-07T21:40:08.804Z,93.30
2022-09-07T21:42:37.505Z,93.50
2022-09-07T21:45:07.424Z,93.50
2022-09-07T21:47:36.072Z,93.40
2022-09-07T21:50:05.760Z,93.50
2022-09-07T21:52:35.806Z,93.50
2022-09-07T21:55:04.765Z,93.80
2022-09-07T21:57:33.373Z,93.60
2022-09-07T22:00:02.118Z,93.70
2022-09-07T22:02:37.213Z,93.80
2022-09-07T22:05:06.512Z,93.70
2022-09-07T22:07:36.515Z,93.90
2022-09-07T22:10:05.913Z,94.00
2022-09-07T22:12:34.537Z,94.00
2022-09-07T22:15:03.219Z,94.20
2022-09-07T22:17:31.868Z,94.10
2022-09-07T22:20:00.481Z,94.10
2022-09-07T22:22:29.156Z,94.10
2022-09-07T22:24:59.096Z,94.00
2022-09-07T22:27:27.700Z,94.00
2022-09-07T22:29:56.335Z,94.10
2022-09-07T22:32:24.984Z,94.20
2022-09-07T22:34:53.721Z,94.40
2022-09-07T22:37:22.695Z,94.50
2022-09-07T22:39:51.416Z,94.40
2022-09-07T22:42:21.392Z,94.70
2022-09-07T22:44:50.137Z,94.70
2022-09-07T22:47:18.704Z,94.80
2022-09-07T22:49:47.310Z,94.90
2022-09-07T22:52:15.953Z,95.10
2022-09-07T22:54:45.745Z,95.10
2022-09-07T22:57:14.702Z,95.50
2022-09-07T22:59:44.742Z,95.30
2022-09-07T23:02:13.332Z,95.50
2022-09-07T23:04:42.580Z,95.60
2022-09-07T23:07:11.252Z,95.80
2022-09-07T23:09:39.817Z,95.70
2022-09-07T23:12:08.640Z,95.80
2022-09-07T23:14:37.229Z,95.90
2022-09-07T23:17:07.200Z,96.00
2022-09-07T23:19:36.020Z,96.00
2022-09-07T23:22:05.454Z,96.20
2022-09-07T23:24:34.634Z,96.40
2022-09-07T23:27:03.218Z,96.40
2022-09-07T23:29:31.911Z,96.60
2022-09-07T23:32:00.528Z,96.60
2022-09-07T23:34:30.455Z,96.70
2022-09-07T23:36:59.200Z,96.80
2022-09-07T23:39:27.990Z,96.80
2022-09-07T23:41:56.646Z,97.00
2022-09-07T23:44:25.274Z,97.20
2022-09-07T23:46:53.929Z,97.10
2022-09-07T23:49:22.571Z,97.10
2022-09-07T23:51:52.928Z,97.20
2022-09-07T23:54:21.627Z,97.20
2022-09-07T23:56:50.209Z,97.50
2022-09-07T23:59:18.812Z,97.80
